Wilton, Missouri
Current Conditions -  °F | °C
As of 9:14 AM on Thursday 18 Dec 2014 (Local Time) from KCOU Reporting Station
Light Snow Light Snow  
Wind Chill: 21°   Ceiling: 500
Heat Index: 29°   Visibility: 1.5mi
Dew Point: 28°   Wind: 8mph
Humidity: 96%   Direction: 90°E
Pressure: 30.25"   Gusts: NA
Location:  38.7092°N, 92.2897°W
Report Text: KCOU 181514Z 09007KT 1 1/2SM -SN BR BKN005 OVC014 M02/M02 A3025 RMK AO2 P0001 T10171022
Loading
Personal Weather Stations






























Interactive Weather Map New forecast layout! Learn more

10-Day Weather Forecast

Advertisements
Track Severe Weather on mobile